sensor_id;sensor_type;location;lat;lon;timestamp;P1;durP1;ratioP1;P2;durP2;ratioP2
3911;SDS011;1971;51.778;10.330;2023-10-19T00:02:09;8.90;;;8.10;;
3911;SDS011;1971;51.778;10.330;2023-10-19T00:04:42;7.37;;;6.60;;
3911;SDS011;1971;51.778;10.330;2023-10-19T00:07:12;9.17;;;7.63;;
3911;SDS011;1971;51.778;10.330;2023-10-19T00:09:44;7.77;;;7.17;;
3911;SDS011;1971;51.778;10.330;2023-10-19T00:12:14;8.83;;;8.07;;
3911;SDS011;1971;51.778;10.330;2023-10-19T00:14:48;8.60;;;7.80;;
3911;SDS011;1971;51.778;10.330;2023-10-19T00:17:16;8.63;;;8.03;;
3911;SDS011;1971;51.778;10.330;2023-10-19T00:19:47;8.97;;;8.27;;
3911;SDS011;1971;51.778;10.330;2023-10-19T00:22:27;7.77;;;6.30;;
3911;SDS011;1971;51.778;10.330;2023-10-19T00:25:03;10.40;;;9.50;;
3911;SDS011;1971;51.778;10.330;2023-10-19T00:27:40;10.07;;;9.37;;
3911;SDS011;1971;51.778;10.330;2023-10-19T00:30:09;10.50;;;9.70;;
3911;SDS011;1971;51.778;10.330;2023-10-19T00:32:44;11.00;;;10.00;;
3911;SDS011;1971;51.778;10.330;2023-10-19T00:35:16;11.30;;;10.30;;
3911;SDS011;1971;51.778;10.330;2023-10-19T00:38:03;11.60;;;10.67;;
3911;SDS011;1971;51.778;10.330;2023-10-19T00:40:54;11.13;;;10.33;;
3911;SDS011;1971;51.778;10.330;2023-10-19T00:43:27;12.17;;;11.00;;
3911;SDS011;1971;51.778;10.330;2023-10-19T00:46:04;11.87;;;10.77;;
3911;SDS011;1971;51.778;10.330;2023-10-19T00:48:36;12.17;;;11.17;;
3911;SDS011;1971;51.778;10.330;2023-10-19T00:51:07;11.23;;;10.33;;
3911;SDS011;1971;51.778;10.330;2023-10-19T00:53:57;11.37;;;10.47;;
3911;SDS011;1971;51.778;10.330;2023-10-19T00:56:34;11.60;;;10.70;;
3911;SDS011;1971;51.778;10.330;2023-10-19T00:59:08;10.93;;;9.93;;
3911;SDS011;1971;51.778;10.330;2023-10-19T01:01:41;10.80;;;10.00;;
3911;SDS011;1971;51.778;10.330;2023-10-19T01:04:15;8.83;;;8.03;;
3911;SDS011;1971;51.778;10.330;2023-10-19T01:06:49;11.40;;;10.50;;
3911;SDS011;1971;51.778;10.330;2023-10-19T01:09:41;11.03;;;10.13;;
3911;SDS011;1971;51.778;10.330;2023-10-19T01:12:13;9.27;;;7.97;;
3911;SDS011;1971;51.778;10.330;2023-10-19T01:15:00;11.83;;;10.83;;
3911;SDS011;1971;51.778;10.330;2023-10-19T01:17:35;12.30;;;10.80;;
3911;SDS011;1971;51.778;10.330;2023-10-19T01:20:11;12.77;;;11.70;;
3911;SDS011;1971;51.778;10.330;2023-10-19T01:22:53;11.50;;;10.60;;
3911;SDS011;1971;51.778;10.330;2023-10-19T01:25:42;11.87;;;10.93;;
3911;SDS011;1971;51.778;10.330;2023-10-19T01:28:17;11.67;;;10.70;;
3911;SDS011;1971;51.778;10.330;2023-10-19T01:30:51;12.10;;;11.07;;
3911;SDS011;1971;51.778;10.330;2023-10-19T01:33:22;8.13;;;7.33;;
3911;SDS011;1971;51.778;10.330;2023-10-19T01:35:54;12.10;;;10.63;;
3911;SDS011;1971;51.778;10.330;2023-10-19T01:38:40;11.17;;;10.27;;
3911;SDS011;1971;51.778;10.330;2023-10-19T01:41:10;11.80;;;10.80;;
3911;SDS011;1971;51.778;10.330;2023-10-19T01:43:40;11.67;;;10.77;;
3911;SDS011;1971;51.778;10.330;2023-10-19T01:46:12;8.43;;;7.63;;
3911;SDS011;1971;51.778;10.330;2023-10-19T01:48:41;11.80;;;10.77;;
3911;SDS011;1971;51.778;10.330;2023-10-19T01:51:13;10.57;;;9.77;;
3911;SDS011;1971;51.778;10.330;2023-10-19T01:53:44;11.47;;;10.47;;
3911;SDS011;1971;51.778;10.330;2023-10-19T01:56:16;10.87;;;9.87;;
3911;SDS011;1971;51.778;10.330;2023-10-19T01:58:45;11.00;;;10.07;;
3911;SDS011;1971;51.778;10.330;2023-10-19T02:01:18;10.13;;;9.33;;
3911;SDS011;1971;51.778;10.330;2023-10-19T02:03:47;11.30;;;10.30;;
3911;SDS011;1971;51.778;10.330;2023-10-19T02:06:22;10.30;;;9.50;;
3911;SDS011;1971;51.778;10.330;2023-10-19T02:08:58;7.57;;;6.87;;
3911;SDS011;1971;51.778;10.330;2023-10-19T02:11:36;9.40;;;8.60;;
3911;SDS011;1971;51.778;10.330;2023-10-19T02:14:05;8.93;;;8.13;;
3911;SDS011;1971;51.778;10.330;2023-10-19T02:16:41;9.03;;;8.23;;
3911;SDS011;1971;51.778;10.330;2023-10-19T02:19:10;8.57;;;7.87;;
3911;SDS011;1971;51.778;10.330;2023-10-19T02:21:40;9.50;;;8.80;;
3911;SDS011;1971;51.778;10.330;2023-10-19T02:24:10;9.40;;;8.70;;
3911;SDS011;1971;51.778;10.330;2023-10-19T02:26:41;8.97;;;8.37;;
3911;SDS011;1971;51.778;10.330;2023-10-19T02:29:10;7.60;;;7.10;;
3911;SDS011;1971;51.778;10.330;2023-10-19T02:31:42;7.70;;;7.10;;
3911;SDS011;1971;51.778;10.330;2023-10-19T02:34:10;7.43;;;6.93;;
3911;SDS011;1971;51.778;10.330;2023-10-19T02:36:42;7.17;;;6.63;;
3911;SDS011;1971;51.778;10.330;2023-10-19T02:39:16;6.30;;;5.70;;
3911;SDS011;1971;51.778;10.330;2023-10-19T02:41:48;6.77;;;6.27;;
3911;SDS011;1971;51.778;10.330;2023-10-19T02:44:21;7.17;;;6.63;;
3911;SDS011;1971;51.778;10.330;2023-10-19T02:46:49;6.23;;;5.83;;
3911;SDS011;1971;51.778;10.330;2023-10-19T02:49:27;5.83;;;5.43;;
3911;SDS011;1971;51.778;10.330;2023-10-19T02:51:57;6.27;;;5.77;;
3911;SDS011;1971;51.778;10.330;2023-10-19T02:54:33;6.00;;;5.60;;
3911;SDS011;1971;51.778;10.330;2023-10-19T02:57:03;5.80;;;5.33;;
3911;SDS011;1971;51.778;10.330;2023-10-19T02:59:34;5.80;;;5.30;;
3911;SDS011;1971;51.778;10.330;2023-10-19T03:02:05;5.47;;;5.00;;
3911;SDS011;1971;51.778;10.330;2023-10-19T03:04:42;4.57;;;4.27;;
3911;SDS011;1971;51.778;10.330;2023-10-19T03:07:13;4.27;;;3.90;;
3911;SDS011;1971;51.778;10.330;2023-10-19T03:09:45;4.00;;;3.70;;
3911;SDS011;1971;51.778;10.330;2023-10-19T03:12:20;3.70;;;3.40;;
3911;SDS011;1971;51.778;10.330;2023-10-19T03:14:52;3.20;;;3.00;;
3911;SDS011;1971;51.778;10.330;2023-10-19T03:17:22;3.43;;;3.20;;
3911;SDS011;1971;51.778;10.330;2023-10-19T03:19:53;2.90;;;2.70;;
3911;SDS011;1971;51.778;10.330;2023-10-19T03:22:23;3.10;;;2.90;;
3911;SDS011;1971;51.778;10.330;2023-10-19T03:24:57;2.27;;;2.17;;
3911;SDS011;1971;51.778;10.330;2023-10-19T03:27:41;2.40;;;2.30;;
3911;SDS011;1971;51.778;10.330;2023-10-19T03:30:11;2.37;;;2.27;;
3911;SDS011;1971;51.778;10.330;2023-10-19T03:32:46;2.63;;;2.43;;
3911;SDS011;1971;51.778;10.330;2023-10-19T03:35:17;2.17;;;2.07;;
3911;SDS011;1971;51.778;10.330;2023-10-19T03:37:48;1.73;;;1.63;;
3911;SDS011;1971;51.778;10.330;2023-10-19T03:40:21;2.17;;;2.07;;
3911;SDS011;1971;51.778;10.330;2023-10-19T03:42:58;1.60;;;1.50;;
3911;SDS011;1971;51.778;10.330;2023-10-19T03:45:38;1.80;;;1.70;;
3911;SDS011;1971;51.778;10.330;2023-10-19T03:48:13;1.80;;;1.70;;
3911;SDS011;1971;51.778;10.330;2023-10-19T03:50:44;1.90;;;1.80;;
3911;SDS011;1971;51.778;10.330;2023-10-19T03:53:15;1.60;;;1.50;;
3911;SDS011;1971;51.778;10.330;2023-10-19T03:55:50;1.30;;;1.20;;
3911;SDS011;1971;51.778;10.330;2023-10-19T03:58:23;1.37;;;1.27;;
3911;SDS011;1971;51.778;10.330;2023-10-19T04:00:56;1.50;;;1.40;;
3911;SDS011;1971;51.778;10.330;2023-10-19T04:03:32;1.33;;;1.23;;
3911;SDS011;1971;51.778;10.330;2023-10-19T04:06:04;1.57;;;1.47;;
3911;SDS011;1971;51.778;10.330;2023-10-19T04:08:40;1.70;;;1.60;;
3911;SDS011;1971;51.778;10.330;2023-10-19T04:11:20;1.40;;;1.30;;
3911;SDS011;1971;51.778;10.330;2023-10-19T04:13:59;1.37;;;1.27;;
3911;SDS011;1971;51.778;10.330;2023-10-19T04:16:30;1.43;;;1.40;;
3911;SDS011;1971;51.778;10.330;2023-10-19T04:19:04;1.50;;;1.40;;
3911;SDS011;1971;51.778;10.330;2023-10-19T04:21:35;1.30;;;1.20;;
3911;SDS011;1971;51.778;10.330;2023-10-19T04:24:07;1.50;;;1.40;;
3911;SDS011;1971;51.778;10.330;2023-10-19T04:26:40;1.40;;;1.30;;
3911;SDS011;1971;51.778;10.330;2023-10-19T04:29:10;1.80;;;1.70;;
3911;SDS011;1971;51.778;10.330;2023-10-19T04:31:45;1.80;;;1.70;;
3911;SDS011;1971;51.778;10.330;2023-10-19T04:34:21;1.90;;;1.80;;
3911;SDS011;1971;51.778;10.330;2023-10-19T04:36:51;1.80;;;1.70;;
3911;SDS011;1971;51.778;10.330;2023-10-19T04:39:22;1.70;;;1.60;;
3911;SDS011;1971;51.778;10.330;2023-10-19T04:41:57;2.17;;;2.07;;
3911;SDS011;1971;51.778;10.330;2023-10-19T04:44:28;2.37;;;2.17;;
3911;SDS011;1971;51.778;10.330;2023-10-19T04:47:01;1.90;;;1.80;;
3911;SDS011;1971;51.778;10.330;2023-10-19T04:49:31;2.53;;;2.43;;
3911;SDS011;1971;51.778;10.330;2023-10-19T04:52:02;2.47;;;2.20;;
3911;SDS011;1971;51.778;10.330;2023-10-19T04:54:32;2.33;;;2.13;;
3911;SDS011;1971;51.778;10.330;2023-10-19T04:57:06;2.80;;;2.60;;
3911;SDS011;1971;51.778;10.330;2023-10-19T04:59:37;2.83;;;2.63;;
3911;SDS011;1971;51.778;10.330;2023-10-19T05:02:12;3.20;;;3.00;;
3911;SDS011;1971;51.778;10.330;2023-10-19T05:04:42;3.27;;;3.07;;
3911;SDS011;1971;51.778;10.330;2023-10-19T05:07:15;3.30;;;3.10;;
3911;SDS011;1971;51.778;10.330;2023-10-19T05:09:46;3.30;;;3.10;;
3911;SDS011;1971;51.778;10.330;2023-10-19T05:12:19;3.33;;;3.13;;
3911;SDS011;1971;51.778;10.330;2023-10-19T05:14:49;3.50;;;3.30;;
3911;SDS011;1971;51.778;10.330;2023-10-19T05:17:20;4.27;;;3.87;;
3911;SDS011;1971;51.778;10.330;2023-10-19T05:19:51;4.23;;;3.70;;
3911;SDS011;1971;51.778;10.330;2023-10-19T05:22:21;4.43;;;4.13;;
3911;SDS011;1971;51.778;10.330;2023-10-19T05:24:52;4.37;;;4.00;;
3911;SDS011;1971;51.778;10.330;2023-10-19T05:27:24;6.33;;;4.77;;
3911;SDS011;1971;51.778;10.330;2023-10-19T05:29:55;4.23;;;3.93;;
3911;SDS011;1971;51.778;10.330;2023-10-19T05:32:25;4.63;;;4.23;;
3911;SDS011;1971;51.778;10.330;2023-10-19T05:34:57;4.33;;;3.97;;
3911;SDS011;1971;51.778;10.330;2023-10-19T05:37:31;4.17;;;3.87;;
3911;SDS011;1971;51.778;10.330;2023-10-19T05:40:01;4.23;;;3.93;;
3911;SDS011;1971;51.778;10.330;2023-10-19T05:42:34;6.03;;;4.67;;
3911;SDS011;1971;51.778;10.330;2023-10-19T05:45:05;4.13;;;3.90;;
3911;SDS011;1971;51.778;10.330;2023-10-19T05:47:39;5.27;;;4.77;;
3911;SDS011;1971;51.778;10.330;2023-10-19T05:50:10;4.90;;;4.53;;
3911;SDS011;1971;51.778;10.330;2023-10-19T05:52:42;5.60;;;5.13;;
3911;SDS011;1971;51.778;10.330;2023-10-19T05:55:14;7.50;;;5.33;;
3911;SDS011;1971;51.778;10.330;2023-10-19T05:57:50;7.23;;;5.30;;
3911;SDS011;1971;51.778;10.330;2023-10-19T06:00:21;5.17;;;4.77;;
3911;SDS011;1971;51.778;10.330;2023-10-19T06:02:52;6.50;;;5.90;;
3911;SDS011;1971;51.778;10.330;2023-10-19T06:05:23;5.90;;;5.30;;
3911;SDS011;1971;51.778;10.330;2023-10-19T06:07:53;12.20;;;6.33;;
3911;SDS011;1971;51.778;10.330;2023-10-19T06:10:23;14.43;;;7.83;;
3911;SDS011;1971;51.778;10.330;2023-10-19T06:12:56;11.53;;;7.93;;
3911;SDS011;1971;51.778;10.330;2023-10-19T06:15:26;27.37;;;10.57;;
3911;SDS011;1971;51.778;10.330;2023-10-19T06:17:59;119.07;;;21.77;;
3911;SDS011;1971;51.778;10.330;2023-10-19T06:20:30;90.20;;;19.50;;
3911;SDS011;1971;51.778;10.330;2023-10-19T06:23:01;9.37;;;7.67;;
3911;SDS011;1971;51.778;10.330;2023-10-19T06:25:34;12.47;;;7.77;;
3911;SDS011;1971;51.778;10.330;2023-10-19T06:28:07;89.57;;;18.43;;
3911;SDS011;1971;51.778;10.330;2023-10-19T06:30:38;68.60;;;15.33;;
3911;SDS011;1971;51.778;10.330;2023-10-19T06:33:09;511.50;;;51.63;;
3911;SDS011;1971;51.778;10.330;2023-10-19T06:35:39;496.73;;;48.00;;
3911;SDS011;1971;51.778;10.330;2023-10-19T06:38:10;119.53;;;20.00;;
3911;SDS011;1971;51.778;10.330;2023-10-19T06:40:41;274.83;;;36.40;;
3911;SDS011;1971;51.778;10.330;2023-10-19T06:43:14;268.33;;;34.17;;
3911;SDS011;1971;51.778;10.330;2023-10-19T06:45:45;353.73;;;39.67;;
3911;SDS011;1971;51.778;10.330;2023-10-19T06:48:15;350.90;;;39.63;;
3911;SDS011;1971;51.778;10.330;2023-10-19T06:50:45;258.10;;;32.13;;
3911;SDS011;1971;51.778;10.330;2023-10-19T06:53:18;161.83;;;22.97;;
3911;SDS011;1971;51.778;10.330;2023-10-19T06:55:48;317.27;;;37.87;;
3911;SDS011;1971;51.778;10.330;2023-10-19T06:58:22;482.83;;;49.33;;
3911;SDS011;1971;51.778;10.330;2023-10-19T07:00:53;482.80;;;50.33;;
3911;SDS011;1971;51.778;10.330;2023-10-19T07:03:27;418.83;;;41.60;;
3911;SDS011;1971;51.778;10.330;2023-10-19T07:05:57;363.33;;;39.17;;
3911;SDS011;1971;51.778;10.330;2023-10-19T07:08:34;365.20;;;41.10;;
3911;SDS011;1971;51.778;10.330;2023-10-19T07:11:04;237.80;;;30.47;;
3911;SDS011;1971;51.778;10.330;2023-10-19T07:13:39;420.57;;;41.13;;
3911;SDS011;1971;51.778;10.330;2023-10-19T07:16:10;479.80;;;45.33;;
3911;SDS011;1971;51.778;10.330;2023-10-19T07:18:41;287.50;;;34.23;;
3911;SDS011;1971;51.778;10.330;2023-10-19T07:21:11;263.20;;;31.67;;
3911;SDS011;1971;51.778;10.330;2023-10-19T07:23:41;279.53;;;31.10;;
3911;SDS011;1971;51.778;10.330;2023-10-19T07:26:12;326.30;;;37.03;;
3911;SDS011;1971;51.778;10.330;2023-10-19T07:28:45;373.40;;;39.20;;
3911;SDS011;1971;51.778;10.330;2023-10-19T07:31:15;611.80;;;53.77;;
3911;SDS011;1971;51.778;10.330;2023-10-19T07:33:46;481.70;;;52.80;;
3911;SDS011;1971;51.778;10.330;2023-10-19T07:36:17;674.97;;;62.50;;
3911;SDS011;1971;51.778;10.330;2023-10-19T07:38:48;414.27;;;42.20;;
3911;SDS011;1971;51.778;10.330;2023-10-19T07:41:18;637.63;;;59.70;;
3911;SDS011;1971;51.778;10.330;2023-10-19T07:43:51;600.63;;;55.87;;
3911;SDS011;1971;51.778;10.330;2023-10-19T07:46:22;677.23;;;62.67;;
3911;SDS011;1971;51.778;10.330;2023-10-19T07:48:52;796.40;;;74.77;;
3911;SDS011;1971;51.778;10.330;2023-10-19T07:51:23;553.00;;;54.67;;
3911;SDS011;1971;51.778;10.330;2023-10-19T07:53:54;847.43;;;75.07;;
3911;SDS011;1971;51.778;10.330;2023-10-19T07:56:24;813.87;;;71.50;;
3911;SDS011;1971;51.778;10.330;2023-10-19T07:58:57;1039.53;;;95.13;;
3911;SDS011;1971;51.778;10.330;2023-10-19T08:01:27;995.83;;;83.47;;
3911;SDS011;1971;51.778;10.330;2023-10-19T08:03:59;1238.83;;;94.90;;
3911;SDS011;1971;51.778;10.330;2023-10-19T08:06:29;778.73;;;68.77;;
3911;SDS011;1971;51.778;10.330;2023-10-19T08:09:00;1134.67;;;97.20;;
3911;SDS011;1971;51.778;10.330;2023-10-19T08:11:32;1090.87;;;88.83;;
3911;SDS011;1971;51.778;10.330;2023-10-19T08:14:05;1023.87;;;83.33;;
3911;SDS011;1971;51.778;10.330;2023-10-19T08:16:35;1033.17;;;86.30;;
3911;SDS011;1971;51.778;10.330;2023-10-19T08:19:06;798.20;;;65.43;;
3911;SDS011;1971;51.778;10.330;2023-10-19T08:21:36;783.03;;;65.53;;
3911;SDS011;1971;51.778;10.330;2023-10-19T08:24:07;845.03;;;72.50;;
3911;SDS011;1971;51.778;10.330;2023-10-19T08:26:40;890.20;;;74.33;;
3911;SDS011;1971;51.778;10.330;2023-10-19T08:29:15;838.57;;;69.10;;
3911;SDS011;1971;51.778;10.330;2023-10-19T08:31:46;687.33;;;57.40;;
3911;SDS011;1971;51.778;10.330;2023-10-19T08:34:16;570.53;;;51.47;;
3911;SDS011;1971;51.778;10.330;2023-10-19T08:36:47;578.30;;;47.77;;
3911;SDS011;1971;51.778;10.330;2023-10-19T08:39:20;250.63;;;28.43;;
3911;SDS011;1971;51.778;10.330;2023-10-19T08:41:51;187.90;;;24.70;;
3911;SDS011;1971;51.778;10.330;2023-10-19T08:44:24;117.47;;;20.37;;
3911;SDS011;1971;51.778;10.330;2023-10-19T08:46:55;92.03;;;18.50;;
3911;SDS011;1971;51.778;10.330;2023-10-19T08:49:25;137.77;;;22.20;;
3911;SDS011;1971;51.778;10.330;2023-10-19T08:51:56;134.90;;;20.70;;
3911;SDS011;1971;51.778;10.330;2023-10-19T08:54:30;175.90;;;24.40;;
3911;SDS011;1971;51.778;10.330;2023-10-19T08:57:02;98.13;;;19.23;;
3911;SDS011;1971;51.778;10.330;2023-10-19T08:59:34;89.70;;;16.90;;
3911;SDS011;1971;51.778;10.330;2023-10-19T09:02:05;127.30;;;17.57;;
3911;SDS011;1971;51.778;10.330;2023-10-19T09:04:40;211.27;;;27.40;;
3911;SDS011;1971;51.778;10.330;2023-10-19T09:07:12;284.27;;;31.87;;
3911;SDS011;1971;51.778;10.330;2023-10-19T09:09:42;174.97;;;25.50;;
3911;SDS011;1971;51.778;10.330;2023-10-19T09:12:14;326.20;;;32.47;;
3911;SDS011;1971;51.778;10.330;2023-10-19T09:14:49;423.83;;;39.40;;
3911;SDS011;1971;51.778;10.330;2023-10-19T09:17:27;615.73;;;54.10;;
3911;SDS011;1971;51.778;10.330;2023-10-19T09:19:59;678.80;;;55.20;;
3911;SDS011;1971;51.778;10.330;2023-10-19T09:22:36;575.03;;;45.13;;
3911;SDS011;1971;51.778;10.330;2023-10-19T09:25:11;572.57;;;49.33;;
3911;SDS011;1971;51.778;10.330;2023-10-19T09:27:42;405.70;;;34.53;;
3911;SDS011;1971;51.778;10.330;2023-10-19T09:30:16;450.47;;;37.80;;
3911;SDS011;1971;51.778;10.330;2023-10-19T09:32:48;520.13;;;44.03;;
3911;SDS011;1971;51.778;10.330;2023-10-19T09:35:20;566.77;;;46.47;;
3911;SDS011;1971;51.778;10.330;2023-10-19T09:37:54;490.80;;;40.20;;
3911;SDS011;1971;51.778;10.330;2023-10-19T09:40:25;567.43;;;47.37;;
3911;SDS011;1971;51.778;10.330;2023-10-19T09:42:56;459.90;;;38.13;;
3911;SDS011;1971;51.778;10.330;2023-10-19T09:45:36;303.87;;;30.93;;
3911;SDS011;1971;51.778;10.330;2023-10-19T09:48:08;453.63;;;41.23;;
3911;SDS011;1971;51.778;10.330;2023-10-19T09:50:44;362.70;;;31.27;;
3911;SDS011;1971;51.778;10.330;2023-10-19T09:53:18;390.20;;;35.13;;
3911;SDS011;1971;51.778;10.330;2023-10-19T09:55:48;177.43;;;20.80;;
3911;SDS011;1971;51.778;10.330;2023-10-19T09:58:23;253.00;;;24.73;;
3911;SDS011;1971;51.778;10.330;2023-10-19T10:00:58;223.10;;;24.70;;
3911;SDS011;1971;51.778;10.330;2023-10-19T10:03:42;329.87;;;29.60;;
3911;SDS011;1971;51.778;10.330;2023-10-19T10:06:17;343.90;;;29.80;;
3911;SDS011;1971;51.778;10.330;2023-10-19T10:08:57;437.83;;;35.80;;
3911;SDS011;1971;51.778;10.330;2023-10-19T10:11:30;630.77;;;51.13;;
3911;SDS011;1971;51.778;10.330;2023-10-19T10:14:00;685.00;;;54.20;;
3911;SDS011;1971;51.778;10.330;2023-10-19T10:17:01;785.97;;;57.90;;
3911;SDS011;1971;51.778;10.330;2023-10-19T10:19:32;483.93;;;41.00;;
3911;SDS011;1971;51.778;10.330;2023-10-19T10:22:07;776.60;;;58.97;;
3911;SDS011;1971;51.778;10.330;2023-10-19T10:24:41;755.00;;;55.40;;
3911;SDS011;1971;51.778;10.330;2023-10-19T10:27:14;646.13;;;52.10;;
3911;SDS011;1971;51.778;10.330;2023-10-19T10:29:56;652.23;;;48.93;;
3911;SDS011;1971;51.778;10.330;2023-10-19T10:32:48;437.60;;;34.50;;
3911;SDS011;1971;51.778;10.330;2023-10-19T10:38:23;399.50;;;32.70;;
3911;SDS011;1971;51.778;10.330;2023-10-19T10:40:54;276.80;;;24.07;;
3911;SDS011;1971;51.778;10.330;2023-10-19T10:43:24;176.17;;;19.10;;
3911;SDS011;1971;51.778;10.330;2023-10-19T10:46:02;162.53;;;17.80;;
3911;SDS011;1971;51.778;10.330;2023-10-19T10:48:40;122.70;;;13.53;;
3911;SDS011;1971;51.778;10.330;2023-10-19T10:51:20;73.33;;;11.70;;
3911;SDS011;1971;51.778;10.330;2023-10-19T10:53:52;26.00;;;6.53;;
3911;SDS011;1971;51.778;10.330;2023-10-19T10:56:24;45.67;;;9.30;;
3911;SDS011;1971;51.778;10.330;2023-10-19T10:58:55;56.27;;;9.07;;
3911;SDS011;1971;51.778;10.330;2023-10-19T11:01:29;70.70;;;10.17;;
3911;SDS011;1971;51.778;10.330;2023-10-19T11:04:09;85.23;;;9.63;;
3911;SDS011;1971;51.778;10.330;2023-10-19T11:06:46;79.50;;;10.30;;
3911;SDS011;1971;51.778;10.330;2023-10-19T11:09:18;116.90;;;14.50;;
3911;SDS011;1971;51.778;10.330;2023-10-19T11:11:48;53.57;;;8.67;;
3911;SDS011;1971;51.778;10.330;2023-10-19T11:14:21;29.90;;;7.20;;
3911;SDS011;1971;51.778;10.330;2023-10-19T11:16:52;89.67;;;12.93;;
3911;SDS011;1971;51.778;10.330;2023-10-19T11:22:12;182.33;;;18.30;;
3911;SDS011;1971;51.778;10.330;2023-10-19T11:24:42;194.40;;;19.60;;
3911;SDS011;1971;51.778;10.330;2023-10-19T11:27:12;266.03;;;24.40;;
3911;SDS011;1971;51.778;10.330;2023-10-19T11:29:53;320.23;;;24.07;;
3911;SDS011;1971;51.778;10.330;2023-10-19T11:32:24;488.67;;;40.37;;
3911;SDS011;1971;51.778;10.330;2023-10-19T11:34:58;469.77;;;38.53;;
3911;SDS011;1971;51.778;10.330;2023-10-19T11:37:28;220.50;;;21.60;;
3911;SDS011;1971;51.778;10.330;2023-10-19T11:39:58;346.03;;;31.60;;
3911;SDS011;1971;51.778;10.330;2023-10-19T11:42:28;504.53;;;56.40;;
3911;SDS011;1971;51.778;10.330;2023-10-19T11:44:58;440.07;;;38.30;;
3911;SDS011;1971;51.778;10.330;2023-10-19T11:47:28;436.80;;;33.00;;
3911;SDS011;1971;51.778;10.330;2023-10-19T11:50:01;282.70;;;24.80;;
3911;SDS011;1971;51.778;10.330;2023-10-19T11:52:32;368.73;;;31.63;;
3911;SDS011;1971;51.778;10.330;2023-10-19T11:55:04;290.40;;;25.47;;
3911;SDS011;1971;51.778;10.330;2023-10-19T11:57:35;289.57;;;25.80;;
3911;SDS011;1971;51.778;10.330;2023-10-19T12:00:06;434.30;;;36.57;;
3911;SDS011;1971;51.778;10.330;2023-10-19T12:02:40;417.30;;;34.40;;
3911;SDS011;1971;51.778;10.330;2023-10-19T12:05:13;432.03;;;34.97;;
3911;SDS011;1971;51.778;10.330;2023-10-19T12:07:43;228.90;;;22.30;;
3911;SDS011;1971;51.778;10.330;2023-10-19T12:10:14;416.63;;;33.13;;
3911;SDS011;1971;51.778;10.330;2023-10-19T12:12:44;505.37;;;42.47;;
3911;SDS011;1971;51.778;10.330;2023-10-19T12:15:26;385.40;;;31.87;;
3911;SDS011;1971;51.778;10.330;2023-10-19T12:17:56;302.60;;;29.97;;
3911;SDS011;1971;51.778;10.330;2023-10-19T12:20:29;344.50;;;30.43;;
3911;SDS011;1971;51.778;10.330;2023-10-19T12:23:02;211.57;;;23.60;;
3911;SDS011;1971;51.778;10.330;2023-10-19T12:25:32;193.07;;;20.60;;
3911;SDS011;1971;51.778;10.330;2023-10-19T12:28:22;179.00;;;19.60;;
3911;SDS011;1971;51.778;10.330;2023-10-19T12:30:52;335.30;;;27.20;;
3911;SDS011;1971;51.778;10.330;2023-10-19T12:33:23;278.70;;;26.10;;
3911;SDS011;1971;51.778;10.330;2023-10-19T12:35:56;212.40;;;19.30;;
3911;SDS011;1971;51.778;10.330;2023-10-19T12:38:26;229.10;;;24.23;;
3911;SDS011;1971;51.778;10.330;2023-10-19T12:40:57;156.83;;;17.43;;
3911;SDS011;1971;51.778;10.330;2023-10-19T12:43:27;324.70;;;28.17;;
3911;SDS011;1971;51.778;10.330;2023-10-19T12:45:57;290.83;;;27.53;;
3911;SDS011;1971;51.778;10.330;2023-10-19T12:48:28;284.17;;;26.70;;
3911;SDS011;1971;51.778;10.330;2023-10-19T12:51:03;360.07;;;31.10;;
3911;SDS011;1971;51.778;10.330;2023-10-19T12:53:33;463.07;;;40.10;;
3911;SDS011;1971;51.778;10.330;2023-10-19T12:56:05;319.57;;;29.37;;
3911;SDS011;1971;51.778;10.330;2023-10-19T12:58:37;356.27;;;33.57;;
3911;SDS011;1971;51.778;10.330;2023-10-19T13:01:07;406.57;;;35.33;;
3911;SDS011;1971;51.778;10.330;2023-10-19T13:03:43;544.47;;;44.33;;
3911;SDS011;1971;51.778;10.330;2023-10-19T13:06:18;299.97;;;28.97;;
3911;SDS011;1971;51.778;10.330;2023-10-19T13:08:50;328.53;;;30.30;;
3911;SDS011;1971;51.778;10.330;2023-10-19T13:11:20;247.53;;;26.70;;
3911;SDS011;1971;51.778;10.330;2023-10-19T13:13:51;237.50;;;26.47;;
3911;SDS011;1971;51.778;10.330;2023-10-19T13:16:21;138.97;;;21.00;;
3911;SDS011;1971;51.778;10.330;2023-10-19T13:18:52;121.60;;;18.00;;
3911;SDS011;1971;51.778;10.330;2023-10-19T13:21:24;131.23;;;18.43;;
3911;SDS011;1971;51.778;10.330;2023-10-19T13:23:59;67.13;;;12.70;;
3911;SDS011;1971;51.778;10.330;2023-10-19T13:26:29;75.73;;;14.13;;
3911;SDS011;1971;51.778;10.330;2023-10-19T13:29:00;148.10;;;19.93;;
3911;SDS011;1971;51.778;10.330;2023-10-19T13:31:31;66.73;;;14.87;;
3911;SDS011;1971;51.778;10.330;2023-10-19T13:34:02;64.77;;;13.33;;
3911;SDS011;1971;51.778;10.330;2023-10-19T13:36:39;22.13;;;10.33;;
3911;SDS011;1971;51.778;10.330;2023-10-19T13:39:11;16.37;;;9.60;;
3911;SDS011;1971;51.778;10.330;2023-10-19T13:41:43;33.00;;;11.50;;
3911;SDS011;1971;51.778;10.330;2023-10-19T13:44:13;20.90;;;9.80;;
3911;SDS011;1971;51.778;10.330;2023-10-19T13:46:45;25.50;;;11.10;;
3911;SDS011;1971;51.778;10.330;2023-10-19T13:49:18;28.80;;;9.63;;
3911;SDS011;1971;51.778;10.330;2023-10-19T13:51:52;18.43;;;8.20;;
3911;SDS011;1971;51.778;10.330;2023-10-19T13:54:22;40.80;;;11.77;;
3911;SDS011;1971;51.778;10.330;2023-10-19T13:56:53;17.53;;;9.90;;
3911;SDS011;1971;51.778;10.330;2023-10-19T13:59:23;15.70;;;9.57;;
3911;SDS011;1971;51.778;10.330;2023-10-19T14:01:53;65.60;;;13.30;;
3911;SDS011;1971;51.778;10.330;2023-10-19T14:04:25;54.23;;;13.47;;
3911;SDS011;1971;51.778;10.330;2023-10-19T14:06:59;69.93;;;13.77;;
3911;SDS011;1971;51.778;10.330;2023-10-19T14:09:29;79.87;;;14.37;;
3911;SDS011;1971;51.778;10.330;2023-10-19T14:12:00;32.57;;;11.30;;
3911;SDS011;1971;51.778;10.330;2023-10-19T14:14:31;40.57;;;12.80;;
3911;SDS011;1971;51.778;10.330;2023-10-19T14:17:01;79.50;;;16.23;;
3911;SDS011;1971;51.778;10.330;2023-10-19T14:19:32;51.83;;;15.07;;
3911;SDS011;1971;51.778;10.330;2023-10-19T14:22:05;38.07;;;12.00;;
3911;SDS011;1971;51.778;10.330;2023-10-19T14:24:35;31.77;;;11.70;;
3911;SDS011;1971;51.778;10.330;2023-10-19T14:27:05;25.27;;;11.30;;
3911;SDS011;1971;51.778;10.330;2023-10-19T14:29:35;25.63;;;10.77;;
3911;SDS011;1971;51.778;10.330;2023-10-19T14:32:05;25.57;;;12.07;;
3911;SDS011;1971;51.778;10.330;2023-10-19T14:34:37;33.40;;;12.40;;
3911;SDS011;1971;51.778;10.330;2023-10-19T14:37:09;22.47;;;11.00;;
3911;SDS011;1971;51.778;10.330;2023-10-19T14:39:40;25.17;;;11.50;;
3911;SDS011;1971;51.778;10.330;2023-10-19T14:42:10;34.03;;;14.40;;
3911;SDS011;1971;51.778;10.330;2023-10-19T14:44:40;22.17;;;11.70;;
3911;SDS011;1971;51.778;10.330;2023-10-19T14:47:11;41.53;;;15.10;;
3911;SDS011;1971;51.778;10.330;2023-10-19T14:49:41;26.50;;;13.10;;
3911;SDS011;1971;51.778;10.330;2023-10-19T14:52:14;20.70;;;10.50;;
3911;SDS011;1971;51.778;10.330;2023-10-19T14:54:44;14.50;;;10.50;;
3911;SDS011;1971;51.778;10.330;2023-10-19T14:57:15;13.13;;;10.00;;
3911;SDS011;1971;51.778;10.330;2023-10-19T14:59:45;11.77;;;9.27;;
3911;SDS011;1971;51.778;10.330;2023-10-19T15:02:15;11.53;;;10.33;;
3911;SDS011;1971;51.778;10.330;2023-10-19T15:04:50;12.10;;;9.70;;
3911;SDS011;1971;51.778;10.330;2023-10-19T15:07:23;13.70;;;9.80;;
3911;SDS011;1971;51.778;10.330;2023-10-19T15:09:54;10.67;;;8.80;;
3911;SDS011;1971;51.778;10.330;2023-10-19T15:12:24;10.80;;;9.47;;
3911;SDS011;1971;51.778;10.330;2023-10-19T15:14:54;9.90;;;8.23;;
3911;SDS011;1971;51.778;10.330;2023-10-19T15:17:25;9.83;;;8.60;;